createdAt,value
2022-10-22T00:01:04.661Z,100048.44
2022-10-22T00:03:38.476Z,100047.19
2022-10-22T00:06:06.472Z,100058.25
2022-10-22T00:08:33.817Z,100058.91
2022-10-22T00:11:12.513Z,100067.84
2022-10-22T00:13:40.721Z,100065.56
2022-10-22T00:16:08.649Z,100061.59
2022-10-22T00:18:36.403Z,100065.34
2022-10-22T00:21:04.874Z,100054.50
2022-10-22T00:23:32.731Z,100056.41
2022-10-22T00:26:02.277Z,100057.44
2022-10-22T00:28:30.551Z,100057.44
2022-10-22T00:31:03.859Z,100053.03
2022-10-22T00:33:35.229Z,100047.00
2022-10-22T00:36:02.746Z,100052.41
2022-10-22T00:38:30.173Z,100049.91
2022-10-22T00:40:57.725Z,100038.03
2022-10-22T00:43:25.221Z,100041.75
2022-10-22T00:45:54.021Z,100047.63
2022-10-22T00:48:28.286Z,100057.44
2022-10-22T00:51:06.538Z,100047.00
2022-10-22T00:53:39.929Z,100051.56
2022-10-22T00:56:09.159Z,100051.19
2022-10-22T00:58:44.080Z,100067.41
2022-10-22T01:01:21.845Z,100066.00
2022-10-22T01:03:53.797Z,100059.94
2022-10-22T01:06:36.837Z,100066.16
2022-10-22T01:09:17.044Z,100074.53
2022-10-22T01:12:05.333Z,100063.88
2022-10-22T01:15:30.309Z,100047.63
2022-10-22T01:18:16.066Z,100043.44
2022-10-22T01:21:12.053Z,100034.50
2022-10-22T01:24:10.539Z,100028.63
2022-10-22T01:26:59.805Z,100014.66
2022-10-22T01:29:50.820Z,100024.69
2022-10-22T01:32:22.226Z,100029.69
2022-10-22T01:34:54.865Z,100020.50
2022-10-22T01:37:26.137Z,100032.00
2022-10-22T01:39:54.477Z,100017.59
2022-10-22T01:42:22.240Z,100013.19
2022-10-22T01:44:53.581Z,100022.56
2022-10-22T01:47:50.577Z,99990.91
2022-10-22T01:50:50.052Z,100008.63
2022-10-22T01:53:32.959Z,100006.09
2022-10-22T01:56:25.077Z,100007.34
2022-10-22T01:59:08.434Z,100006.31
2022-10-22T02:02:08.950Z,100008.41
2022-10-22T02:04:46.365Z,100015.06
2022-10-22T02:07:19.242Z,100006.06
2022-10-22T02:09:47.296Z,100012.13
2022-10-22T02:12:17.895Z,100007.72
2022-10-22T02:14:46.870Z,99993.75
2022-10-22T02:17:20.129Z,100001.88
2022-10-22T02:20:19.686Z,99995.84
2022-10-22T02:22:47.691Z,100006.25
2022-10-22T02:25:15.210Z,100016.69
2022-10-22T02:28:02.900Z,100035.28
2022-10-22T02:30:33.123Z,100038.00
2022-10-22T02:33:20.765Z,100039.25
2022-10-22T02:35:49.848Z,100030.91
2022-10-22T02:38:19.082Z,100035.69
2022-10-22T02:40:47.040Z,100038.59
2022-10-22T02:43:15.153Z,100038.00
2022-10-22T02:45:42.353Z,100036.09
2022-10-22T02:48:09.851Z,100037.16
2022-10-22T02:50:37.224Z,100038.81
2022-10-22T02:53:05.003Z,100021.25
2022-10-22T02:55:32.256Z,100024.59
2022-10-22T02:57:59.760Z,100019.81
2022-10-22T03:00:28.374Z,100011.66
2022-10-22T03:02:56.089Z,100016.47
2022-10-22T03:05:23.296Z,100006.66
2022-10-22T03:07:50.784Z,100017.06
2022-10-22T03:10:18.046Z,100013.94
2022-10-22T03:12:45.474Z,100021.03
2022-10-22T03:15:12.724Z,100015.41
2022-10-22T03:17:40.489Z,100021.69
2022-10-22T03:20:08.718Z,100022.09
2022-10-22T03:22:44.296Z,100022.94
2022-10-22T03:25:36.568Z,100024.38
2022-10-22T03:28:06.893Z,100032.31
2022-10-22T03:30:34.184Z,100041.06
2022-10-22T03:33:02.096Z,100024.78
2022-10-22T03:35:29.585Z,100023.56
2022-10-22T03:38:00.770Z,100025.44
2022-10-22T03:40:28.206Z,100024.19
2022-10-22T03:43:14.849Z,100029.41
2022-10-22T03:45:42.013Z,100019.59
2022-10-22T03:48:09.483Z,100027.16
2022-10-22T03:50:36.712Z,100020.81
2022-10-22T03:53:04.895Z,100019.81
2022-10-22T03:55:32.119Z,100033.81
2022-10-22T03:57:59.575Z,100021.88
2022-10-22T04:00:27.106Z,100040.88
2022-10-22T04:02:57.343Z,100024.78
2022-10-22T04:05:24.636Z,99990.19
2022-10-22T04:07:52.353Z,99994.34
2022-10-22T04:10:19.623Z,99997.69
2022-10-22T04:12:50.326Z,100011.66
2022-10-22T04:15:17.680Z,99984.78
2022-10-22T04:17:45.166Z,100010.22
2022-10-22T04:20:12.780Z,100007.72
2022-10-22T04:22:41.263Z,100010.22
2022-10-22T04:25:10.762Z,100003.31
2022-10-22T04:27:43.767Z,100000.16
2022-10-22T04:30:26.072Z,100002.88
2022-10-22T04:33:05.405Z,100007.72
2022-10-22T04:35:38.825Z,100003.31
2022-10-22T04:38:06.278Z,100005.00
2022-10-22T04:40:33.827Z,100006.66
2022-10-22T04:43:01.434Z,100014.56
2022-10-22T04:45:28.684Z,99986.25
2022-10-22T04:47:56.817Z,100007.06
2022-10-22T04:50:42.816Z,100005.59
2022-10-22T04:53:10.353Z,99992.47
2022-10-22T04:55:37.564Z,100001.25
2022-10-22T04:58:05.297Z,100001.84
2022-10-22T05:00:32.800Z,100004.19
2022-10-22T05:03:00.674Z,100016.28
2022-10-22T05:05:28.874Z,99998.31
2022-10-22T05:08:13.854Z,100005.81
2022-10-22T05:10:42.771Z,100001.44
2022-10-22T05:13:16.171Z,99992.47
2022-10-22T05:16:14.657Z,99992.03
2022-10-22T05:18:46.935Z,99991.22
2022-10-22T05:21:18.170Z,99992.66
2022-10-22T05:23:48.379Z,99993.47
2022-10-22T05:26:18.854Z,99991.81
2022-10-22T05:28:48.527Z,99995.97
2022-10-22T05:31:17.871Z,100008.03
2022-10-22T05:33:46.122Z,100008.22
2022-10-22T05:36:16.295Z,100014.88
2022-10-22T05:38:44.033Z,100024.72
2022-10-22T05:41:17.188Z,100025.72
2022-10-22T05:43:45.329Z,100031.38
2022-10-22T05:46:22.014Z,100013.59
2022-10-22T05:48:59.269Z,100015.72
2022-10-22T05:51:30.978Z,100023.44
2022-10-22T05:54:01.210Z,100015.59
2022-10-22T05:56:30.090Z,100014.50
2022-10-22T05:58:57.874Z,100014.84
2022-10-22T06:01:28.161Z,100017.66
2022-10-22T06:03:58.588Z,100010.88
2022-10-22T06:06:46.808Z,100024.22
2022-10-22T06:09:22.456Z,100022.44
2022-10-22T06:11:50.997Z,100020.25
2022-10-22T06:14:20.337Z,100032.31
2022-10-22T06:16:48.404Z,100031.34
2022-10-22T06:19:18.505Z,100035.50
2022-10-22T06:21:47.574Z,100027.91
2022-10-22T06:24:19.705Z,100036.75
2022-10-22T06:26:52.749Z,100040.38
2022-10-22T06:29:20.440Z,100030.00
2022-10-22T06:31:48.030Z,100023.44
2022-10-22T06:34:18.966Z,100029.63
2022-10-22T06:36:47.132Z,100031.25
2022-10-22T06:39:17.559Z,100036.53
2022-10-22T06:41:45.269Z,100042.13
2022-10-22T06:44:18.223Z,100040.38
2022-10-22T06:46:46.029Z,100039.31
2022-10-22T06:49:15.215Z,100039.22
2022-10-22T06:51:42.693Z,100045.69
2022-10-22T06:54:10.891Z,100056.31
2022-10-22T06:56:38.229Z,100062.34
2022-10-22T06:59:05.755Z,100060.47
2022-10-22T07:01:35.375Z,100058.22
2022-10-22T07:04:04.328Z,100051.94
2022-10-22T07:06:31.626Z,100046.88
2022-10-22T07:09:00.075Z,100063.19
2022-10-22T07:11:30.268Z,100057.13
2022-10-22T07:13:59.601Z,100047.69
2022-10-22T07:16:31.120Z,100032.59
2022-10-22T07:19:04.753Z,100045.44
2022-10-22T07:21:32.315Z,100045.50
2022-10-22T07:24:00.410Z,100053.28
2022-10-22T07:26:30.964Z,100057.38
2022-10-22T07:29:02.490Z,100069.53
2022-10-22T07:31:30.030Z,100065.81
2022-10-22T07:33:58.435Z,100068.28
2022-10-22T07:36:25.741Z,100065.53
2022-10-22T07:38:58.252Z,100067.94
2022-10-22T07:41:27.530Z,100057.56
2022-10-22T07:43:56.057Z,100069.69
2022-10-22T07:46:24.138Z,100074.81
2022-10-22T07:48:51.992Z,100061.13
2022-10-22T07:51:19.254Z,100069.34
2022-10-22T07:53:46.808Z,100069.44
2022-10-22T07:56:14.184Z,100066.22
2022-10-22T07:58:41.710Z,100071.53
2022-10-22T08:01:09.047Z,100060.59
2022-10-22T08:03:36.897Z,100053.56
2022-10-22T08:06:04.357Z,100058.66
2022-10-22T08:08:32.424Z,100047.25
2022-10-22T08:11:00.906Z,100047.59
2022-10-22T08:13:30.774Z,100048.44
2022-10-22T08:16:01.824Z,100053.69
2022-10-22T08:18:29.808Z,100042.34
2022-10-22T08:20:57.561Z,100047.03
2022-10-22T08:23:26.206Z,100041.47
2022-10-22T08:25:57.043Z,100040.53
2022-10-22T08:28:24.908Z,100034.94
2022-10-22T08:30:52.185Z,100034.31
2022-10-22T08:33:19.800Z,100031.06
2022-10-22T08:35:51.805Z,100031.88
2022-10-22T08:38:19.907Z,100032.13
2022-10-22T08:41:06.334Z,100034.47
2022-10-22T08:43:42.104Z,100033.22
2022-10-22T08:46:42.910Z,100037.53
2022-10-22T08:49:20.669Z,100032.25
2022-10-22T08:51:48.161Z,100021.50
2022-10-22T08:54:44.658Z,100016.50
2022-10-22T08:57:39.460Z,100018.31
2022-10-22T09:00:15.084Z,100020.25
2022-10-22T09:02:48.677Z,100018.94
2022-10-22T09:05:54.196Z,100007.09
2022-10-22T09:08:22.119Z,100009.44
2022-10-22T09:10:56.028Z,100013.41
2022-10-22T09:13:24.236Z,100026.28
2022-10-22T09:15:56.313Z,100026.22
2022-10-22T09:18:30.018Z,100035.84
2022-10-22T09:21:04.279Z,100017.22
2022-10-22T09:23:39.971Z,100012.00
2022-10-22T09:26:15.735Z,100019.97
2022-10-22T09:28:44.115Z,100028.31
2022-10-22T09:31:13.779Z,100032.50
2022-10-22T09:33:42.985Z,100033.28
2022-10-22T09:36:18.712Z,100040.66
2022-10-22T09:38:52.503Z,100034.56
2022-10-22T09:41:26.304Z,100036.81
2022-10-22T09:43:57.042Z,100041.22
2022-10-22T09:46:31.667Z,100041.16
2022-10-22T09:49:11.086Z,100025.72
2022-10-22T09:51:51.995Z,100035.41
2022-10-22T09:54:24.424Z,100031.41
2022-10-22T09:56:57.804Z,100034.22
2022-10-22T09:59:29.132Z,100026.81
2022-10-22T10:02:08.511Z,100025.75
2022-10-22T10:04:53.043Z,100020.75
2022-10-22T10:07:23.647Z,100014.44
2022-10-22T10:09:52.474Z,100017.47
2022-10-22T10:13:05.544Z,100011.75
2022-10-22T10:15:55.733Z,100015.09
2022-10-22T10:19:19.725Z,100017.81
2022-10-22T10:22:12.297Z,100006.72
2022-10-22T10:24:48.358Z,99998.19
2022-10-22T10:27:20.939Z,100010.50
2022-10-22T10:30:16.074Z,100005.25
2022-10-22T10:33:01.758Z,100006.38
2022-10-22T10:35:37.118Z,100006.63
2022-10-22T10:38:40.583Z,99998.94
2022-10-22T10:41:17.977Z,99998.63
2022-10-22T10:43:51.857Z,99992.06
2022-10-22T10:46:48.720Z,99985.72
2022-10-22T10:49:33.198Z,99978.03
2022-10-22T10:52:17.407Z,99982.47
2022-10-22T10:55:23.117Z,99975.84
2022-10-22T10:58:40.186Z,99981.63
2022-10-22T11:01:42.094Z,99979.38
2022-10-22T11:04:47.215Z,99977.16
2022-10-22T11:07:34.325Z,99980.75
2022-10-22T11:10:32.534Z,99975.25
2022-10-22T11:13:08.995Z,99976.09
2022-10-22T11:15:39.416Z,99959.88
2022-10-22T11:18:18.493Z,99972.31
2022-10-22T11:21:17.657Z,99968.22
2022-10-22T11:23:46.899Z,99947.03
2022-10-22T11:26:46.470Z,99969.06
2022-10-22T11:29:23.026Z,99953.69
2022-10-22T11:31:53.416Z,99942.94
2022-10-22T11:34:44.694Z,99956.09
2022-10-22T11:37:14.612Z,99948.44
2022-10-22T11:39:51.392Z,99955.56
2022-10-22T11:42:30.342Z,99947.56
2022-10-22T11:45:29.551Z,99942.63
2022-10-22T11:47:57.108Z,99944.81
2022-10-22T11:50:47.100Z,99951.59
2022-10-22T11:53:14.556Z,99952.09
2022-10-22T11:55:55.610Z,99939.81
2022-10-22T11:58:38.418Z,99943.44
2022-10-22T12:01:08.391Z,99924.03
2022-10-22T12:03:38.017Z,99922.38
2022-10-22T12:06:05.267Z,99925.19
2022-10-22T12:08:34.255Z,99926.03
2022-10-22T12:11:41.760Z,99921.13
2022-10-22T12:14:28.178Z,99920.16
2022-10-22T12:17:14.289Z,99906.38
2022-10-22T12:19:45.168Z,99909.75
2022-10-22T12:22:31.989Z,99904.06
2022-10-22T12:25:10.770Z,99902.75
2022-10-22T12:27:42.016Z,99905.28
2022-10-22T12:30:37.026Z,99910.56
2022-10-22T12:33:28.425Z,99901.50
2022-10-22T12:36:07.770Z,99903.72
2022-10-22T12:38:49.945Z,99906.47
2022-10-22T12:41:18.719Z,99904.75
2022-10-22T12:43:46.267Z,99883.00
2022-10-22T12:46:16.503Z,99902.56
2022-10-22T12:48:45.927Z,99898.09
2022-10-22T12:51:18.340Z,99884.03
2022-10-22T12:53:53.412Z,99900.03
2022-10-22T12:56:32.415Z,99892.94
2022-10-22T12:59:39.409Z,99895.81
2022-10-22T13:02:31.333Z,99887.81
2022-10-22T13:05:31.432Z,99887.81
2022-10-22T13:10:55.026Z,99893.88
2022-10-22T13:13:35.954Z,99884.75
2022-10-22T13:16:14.410Z,99891.09
2022-10-22T13:18:42.841Z,99889.72
2022-10-22T13:21:24.298Z,99891.91
2022-10-22T13:24:00.252Z,99884.25
2022-10-22T13:26:33.677Z,99888.09
2022-10-22T13:29:02.990Z,99889.22
2022-10-22T13:31:33.651Z,99885.97
2022-10-22T13:34:09.826Z,99892.56
2022-10-22T13:36:39.453Z,99891.78
2022-10-22T13:39:09.001Z,99893.41
2022-10-22T13:44:08.368Z,99894.50
2022-10-22T13:46:44.845Z,99887.91
2022-10-22T13:49:23.524Z,99895.34
2022-10-22T13:51:51.940Z,99887.06
2022-10-22T13:54:24.595Z,99884.34
2022-10-22T13:56:53.742Z,99871.19
2022-10-22T13:59:22.993Z,99872.88
2022-10-22T14:01:52.766Z,99875.91
2022-10-22T14:04:20.396Z,99885.56
2022-10-22T14:06:47.962Z,99883.38
2022-10-22T14:09:20.706Z,99872.91
2022-10-22T14:11:53.423Z,99879.19
2022-10-22T14:14:41.339Z,99873.06
2022-10-22T14:17:22.291Z,99866.13
2022-10-22T14:20:46.295Z,99867.44
2022-10-22T14:23:24.722Z,99861.34
2022-10-22T14:25:52.443Z,99861.50
2022-10-22T14:28:20.355Z,99867.69
2022-10-22T14:30:48.239Z,99857.31
2022-10-22T14:33:28.952Z,99871.06
2022-10-22T14:36:00.642Z,99854.34
2022-10-22T14:38:29.209Z,99859.59
2022-10-22T14:41:05.639Z,99855.41
2022-10-22T14:44:29.264Z,99846.72
2022-10-22T14:47:36.229Z,99859.00
2022-10-22T14:54:03.225Z,99842.63
2022-10-22T14:56:30.633Z,99856.16
2022-10-22T14:58:58.180Z,99854.81
2022-10-22T15:01:25.530Z,99853.72
2022-10-22T15:03:55.466Z,99849.59
2022-10-22T15:06:32.650Z,99841.63
2022-10-22T15:09:03.565Z,99847.69
2022-10-22T15:11:35.997Z,99855.13
2022-10-22T15:14:05.264Z,99860.38
2022-10-22T15:16:32.492Z,99850.44
2022-10-22T15:19:00.998Z,99846.00
2022-10-22T15:21:28.692Z,99832.78
2022-10-22T15:23:56.426Z,99849.25
2022-10-22T15:26:26.012Z,99844.81
2022-10-22T15:29:29.112Z,99857.47
2022-10-22T15:35:54.556Z,99847.31
2022-10-22T15:38:39.008Z,99852.88
2022-10-22T15:41:10.397Z,99848.66
2022-10-22T15:43:38.387Z,99840.56
2022-10-22T15:46:11.969Z,99841.69
2022-10-22T15:48:39.959Z,99845.44
2022-10-22T15:51:15.516Z,99839.84
2022-10-22T15:53:43.494Z,99845.81
2022-10-22T15:56:12.152Z,99856.88
2022-10-22T15:58:40.067Z,99845.25
2022-10-22T16:01:11.265Z,99844.09
2022-10-22T16:03:39.423Z,99846.88
2022-10-22T16:06:09.233Z,99852.72
2022-10-22T16:08:38.357Z,99850.56
2022-10-22T16:11:08.727Z,99856.97
2022-10-22T16:13:37.441Z,99864.38
2022-10-22T16:16:07.120Z,99855.56
2022-10-22T16:18:34.602Z,99856.56
2022-10-22T16:21:01.932Z,99858.63
2022-10-22T16:23:29.840Z,99865.50
2022-10-22T16:26:15.368Z,99860.88
2022-10-22T16:28:59.272Z,99859.28
2022-10-22T16:31:35.403Z,99863.09
2022-10-22T16:34:18.526Z,99870.00
2022-10-22T16:37:39.329Z,99859.75
2022-10-22T16:40:58.060Z,99853.91
2022-10-22T16:44:50.180Z,99887.47
2022-10-22T16:48:00.206Z,99876.16
2022-10-22T16:50:41.744Z,99867.53
2022-10-22T16:56:11.830Z,99858.47
2022-10-22T16:58:43.701Z,99864.47
2022-10-22T17:01:13.387Z,99861.63
2022-10-22T17:03:42.618Z,99865.13
2022-10-22T17:06:11.946Z,99867.41
2022-10-22T17:08:41.156Z,99859.63
2022-10-22T17:11:13.595Z,99865.09
2022-10-22T17:13:42.015Z,99859.78
2022-10-22T17:16:12.630Z,99859.13
2022-10-22T17:18:41.388Z,99869.94
2022-10-22T17:21:10.918Z,99855.25
2022-10-22T17:23:40.123Z,99870.69
2022-10-22T17:26:44.530Z,99866.41
2022-10-22T17:29:52.815Z,99867.47
2022-10-22T17:32:57.292Z,99889.59
2022-10-22T17:36:33.213Z,99880.97
2022-10-22T17:39:39.937Z,99890.63
2022-10-22T17:42:09.220Z,99884.22
2022-10-22T17:44:37.698Z,99878.66
2022-10-22T17:47:06.300Z,99880.47
2022-10-22T17:49:33.587Z,99872.06
2022-10-22T17:54:33.963Z,99875.72
2022-10-22T17:57:11.094Z,99877.88
2022-10-22T17:59:41.372Z,99878.72
2022-10-22T18:02:17.386Z,99883.13
2022-10-22T18:05:11.913Z,99885.16
2022-10-22T18:07:49.580Z,99894.28
2022-10-22T18:10:24.982Z,99897.72
2022-10-22T18:12:55.650Z,99892.97
2022-10-22T18:15:58.606Z,99898.69
2022-10-22T18:19:04.690Z,99907.72
2022-10-22T18:22:04.905Z,99901.41
2022-10-22T18:24:36.818Z,99872.47
2022-10-22T18:27:04.249Z,99891.78
2022-10-22T18:29:31.855Z,99891.66
2022-10-22T18:32:00.152Z,99905.91
2022-10-22T18:34:31.172Z,99884.66
2022-10-22T18:36:58.690Z,99899.63
2022-10-22T18:39:26.254Z,99890.94
2022-10-22T18:41:55.491Z,99920.25
2022-10-22T18:45:29.449Z,99925.97
2022-10-22T18:49:03.236Z,99935.44
2022-10-22T18:51:32.941Z,99948.03
2022-10-22T18:54:32.655Z,99936.16
2022-10-22T18:57:02.875Z,99926.19
2022-10-22T18:59:31.745Z,99927.13
2022-10-22T19:01:59.806Z,99943.88
2022-10-22T19:04:34.246Z,99936.88
2022-10-22T19:07:01.976Z,99917.28
2022-10-22T19:09:29.265Z,99932.59
2022-10-22T19:11:56.916Z,99945.88
2022-10-22T19:14:24.233Z,99964.16
2022-10-22T19:16:52.037Z,99979.00
2022-10-22T19:19:22.479Z,99990.88
2022-10-22T19:21:51.330Z,99995.69
2022-10-22T19:24:20.379Z,100003.28
2022-10-22T19:26:59.692Z,100001.84
2022-10-22T19:29:32.296Z,100028.06
2022-10-22T19:32:59.327Z,100036.16
2022-10-22T19:37:06.946Z,100044.34
2022-10-22T19:42:56.745Z,100063.69
2022-10-22T19:45:26.574Z,100076.75
2022-10-22T19:47:54.843Z,100087.78
2022-10-22T19:50:22.827Z,100067.00
2022-10-22T19:52:51.343Z,100078.75
2022-10-22T19:55:18.969Z,100086.00
2022-10-22T19:57:53.716Z,100086.13
2022-10-22T20:01:39.541Z,100093.44
2022-10-22T20:04:15.274Z,100092.59
2022-10-22T20:06:45.614Z,100116.81
2022-10-22T20:09:26.373Z,100122.03
2022-10-22T20:11:54.032Z,100116.25
2022-10-22T20:14:21.689Z,100123.38
2022-10-22T20:16:49.176Z,100135.88
2022-10-22T20:19:17.412Z,100141.56
2022-10-22T20:21:46.066Z,100145.53
2022-10-22T20:24:14.453Z,100160.78
2022-10-22T20:26:44.952Z,100161.25
2022-10-22T20:29:26.383Z,100164.94
2022-10-22T20:32:28.374Z,100180.28
2022-10-22T20:35:22.814Z,100181.38
2022-10-22T20:37:54.255Z,100174.16
2022-10-22T20:40:34.072Z,100179.22
2022-10-22T20:43:04.673Z,100210.44
2022-10-22T20:46:03.971Z,100221.44
2022-10-22T20:48:38.684Z,100218.84
2022-10-22T20:51:10.289Z,100225.34
2022-10-22T20:53:40.910Z,100229.94
2022-10-22T20:56:15.432Z,100232.75
2022-10-22T20:58:48.084Z,100225.31
2022-10-22T21:01:23.985Z,100226.34
2022-10-22T21:03:53.007Z,100231.91
2022-10-22T21:06:23.332Z,100229.88
2022-10-22T21:08:52.251Z,100224.88
2022-10-22T21:11:20.939Z,100229.19
2022-10-22T21:13:48.732Z,100229.59
2022-10-22T21:16:18.764Z,100235.44
2022-10-22T21:18:49.558Z,100247.78
2022-10-22T21:21:17.802Z,100243.66
2022-10-22T21:23:45.625Z,100255.41
2022-10-22T21:26:13.087Z,100262.16
2022-10-22T21:28:42.070Z,100271.00
2022-10-22T21:31:21.128Z,100270.16
2022-10-22T21:34:17.850Z,100268.09
2022-10-22T21:36:53.398Z,100264.56
2022-10-22T21:39:26.536Z,100279.88
2022-10-22T21:41:57.494Z,100262.31
2022-10-22T21:44:25.222Z,100273.84
2022-10-22T21:46:52.508Z,100264.00
2022-10-22T21:49:20.042Z,100273.00
2022-10-22T21:51:47.306Z,100273.44
2022-10-22T21:54:14.881Z,100283.28
2022-10-22T21:56:43.804Z,100281.22
2022-10-22T21:59:11.352Z,100299.66
2022-10-22T22:01:39.024Z,100290.25
2022-10-22T22:04:18.624Z,100298.44
2022-10-22T22:06:46.101Z,100287.16
2022-10-22T22:09:21.032Z,100304.28
2022-10-22T22:11:51.830Z,100297.00
2022-10-22T22:14:21.064Z,100302.66
2022-10-22T22:16:48.313Z,100307.22
2022-10-22T22:19:15.819Z,100310.38
2022-10-22T22:21:43.131Z,100297.44
2022-10-22T22:24:12.968Z,100308.47
2022-10-22T22:26:41.026Z,100298.91
2022-10-22T22:29:15.319Z,100328.38
2022-10-22T22:32:49.148Z,100339.88
2022-10-22T22:35:32.177Z,100332.94
2022-10-22T22:38:03.441Z,100345.06
2022-10-22T22:40:39.210Z,100341.94
2022-10-22T22:43:11.644Z,100340.06
2022-10-22T22:45:40.894Z,100340.28
2022-10-22T22:48:08.282Z,100338.41
2022-10-22T22:50:36.774Z,100344.03
2022-10-22T22:53:04.013Z,100344.91
2022-10-22T22:55:32.091Z,100354.09
2022-10-22T22:57:59.409Z,100345.31
2022-10-22T23:00:27.174Z,100344.72
2022-10-22T23:02:55.920Z,100352.66
2022-10-22T23:05:23.400Z,100352.00
2022-10-22T23:07:50.633Z,100335.34
2022-10-22T23:10:18.060Z,100350.75
2022-10-22T23:12:45.494Z,100359.56
2022-10-22T23:15:12.991Z,100373.34
2022-10-22T23:17:40.256Z,100358.31
2022-10-22T23:20:08.961Z,100365.44
2022-10-22T23:22:36.542Z,100364.59
2022-10-22T23:25:04.193Z,100377.56
2022-10-22T23:27:31.415Z,100380.03
2022-10-22T23:29:58.863Z,100379.63
2022-10-22T23:32:26.140Z,100386.94
2022-10-22T23:34:53.640Z,100395.91
2022-10-22T23:37:20.973Z,100389.66
2022-10-22T23:39:48.526Z,100378.34
2022-10-22T23:42:15.767Z,100382.75
2022-10-22T23:44:43.565Z,100376.28
2022-10-22T23:47:11.011Z,100372.09
2022-10-22T23:49:38.446Z,100360.81
2022-10-22T23:52:05.690Z,100353.50
2022-10-22T23:54:34.417Z,100343.69
2022-10-22T23:57:01.665Z,100344.50
2022-10-22T23:59:29.122Z,100354.94
